sensor_id;sensor_type;location;lat;lon;timestamp;P1;durP1;ratioP1;P2;durP2;ratioP2
12986;SDS011;58897;51.960;5.582;2022-12-31T00:00:05;2.70;;;2.40;;
12986;SDS011;58897;51.960;5.582;2022-12-31T00:02:32;3.27;;;2.37;;
12986;SDS011;58897;51.960;5.582;2022-12-31T00:04:59;2.93;;;2.30;;
12986;SDS011;58897;51.960;5.582;2022-12-31T00:07:26;2.87;;;2.43;;
12986;SDS011;58897;51.960;5.582;2022-12-31T00:09:52;4.40;;;2.43;;
12986;SDS011;58897;51.960;5.582;2022-12-31T00:12:19;3.30;;;2.10;;
12986;SDS011;58897;51.960;5.582;2022-12-31T00:14:46;2.30;;;1.60;;
12986;SDS011;58897;51.960;5.582;2022-12-31T00:17:12;1.93;;;1.70;;
12986;SDS011;58897;51.960;5.582;2022-12-31T00:19:39;1.30;;;1.20;;
12986;SDS011;58897;51.960;5.582;2022-12-31T00:22:05;5.50;;;2.30;;
12986;SDS011;58897;51.960;5.582;2022-12-31T00:24:32;4.47;;;2.73;;
12986;SDS011;58897;51.960;5.582;2022-12-31T00:27:01;6.10;;;4.97;;
12986;SDS011;58897;51.960;5.582;2022-12-31T00:29:27;6.23;;;3.83;;
12986;SDS011;58897;51.960;5.582;2022-12-31T00:31:54;2.80;;;2.60;;
12986;SDS011;58897;51.960;5.582;2022-12-31T00:34:20;1.27;;;1.17;;
12986;SDS011;58897;51.960;5.582;2022-12-31T00:36:47;1.80;;;1.70;;
12986;SDS011;58897;51.960;5.582;2022-12-31T00:39:14;2.00;;;1.17;;
12986;SDS011;58897;51.960;5.582;2022-12-31T00:41:40;1.30;;;1.20;;
12986;SDS011;58897;51.960;5.582;2022-12-31T00:44:12;4.93;;;3.60;;
12986;SDS011;58897;51.960;5.582;2022-12-31T00:46:39;6.60;;;5.90;;
12986;SDS011;58897;51.960;5.582;2022-12-31T00:49:04;8.07;;;7.23;;
12986;SDS011;58897;51.960;5.582;2022-12-31T00:51:31;9.23;;;6.20;;
12986;SDS011;58897;51.960;5.582;2022-12-31T00:53:57;7.83;;;6.00;;
12986;SDS011;58897;51.960;5.582;2022-12-31T00:56:25;5.63;;;5.13;;
12986;SDS011;58897;51.960;5.582;2022-12-31T00:58:54;3.80;;;3.10;;
12986;SDS011;58897;51.960;5.582;2022-12-31T01:01:31;3.97;;;3.13;;
12986;SDS011;58897;51.960;5.582;2022-12-31T01:04:05;4.43;;;2.57;;
12986;SDS011;58897;51.960;5.582;2022-12-31T01:06:37;2.00;;;1.40;;
12986;SDS011;58897;51.960;5.582;2022-12-31T01:09:04;2.03;;;1.50;;
12986;SDS011;58897;51.960;5.582;2022-12-31T01:11:31;1.30;;;1.20;;
12986;SDS011;58897;51.960;5.582;2022-12-31T01:16:39;2.70;;;1.57;;
12986;SDS011;58897;51.960;5.582;2022-12-31T01:19:10;1.80;;;1.60;;
12986;SDS011;58897;51.960;5.582;2022-12-31T01:21:40;1.53;;;1.43;;
12986;SDS011;58897;51.960;5.582;2022-12-31T01:24:08;2.33;;;1.43;;
12986;SDS011;58897;51.960;5.582;2022-12-31T01:26:36;1.43;;;1.00;;
12986;SDS011;58897;51.960;5.582;2022-12-31T01:29:03;1.40;;;1.20;;
12986;SDS011;58897;51.960;5.582;2022-12-31T01:31:31;4.47;;;1.47;;
12986;SDS011;58897;51.960;5.582;2022-12-31T01:33:59;1.03;;;0.93;;
12986;SDS011;58897;51.960;5.582;2022-12-31T01:36:26;1.70;;;1.60;;
12986;SDS011;58897;51.960;5.582;2022-12-31T01:38:56;1.43;;;1.20;;
12986;SDS011;58897;51.960;5.582;2022-12-31T01:41:28;2.30;;;1.50;;
12986;SDS011;58897;51.960;5.582;2022-12-31T01:46:48;2.17;;;1.57;;
12986;SDS011;58897;51.960;5.582;2022-12-31T01:51:48;1.87;;;1.33;;
12986;SDS011;58897;51.960;5.582;2022-12-31T01:54:19;1.70;;;1.40;;
12986;SDS011;58897;51.960;5.582;2022-12-31T01:56:50;2.67;;;1.20;;
12986;SDS011;58897;51.960;5.582;2022-12-31T01:59:18;1.63;;;1.50;;
12986;SDS011;58897;51.960;5.582;2022-12-31T02:01:47;1.63;;;1.23;;
12986;SDS011;58897;51.960;5.582;2022-12-31T02:04:20;2.60;;;1.53;;
12986;SDS011;58897;51.960;5.582;2022-12-31T02:06:50;3.97;;;1.20;;
12986;SDS011;58897;51.960;5.582;2022-12-31T02:09:21;1.37;;;1.27;;
12986;SDS011;58897;51.960;5.582;2022-12-31T02:11:47;2.07;;;1.20;;
12986;SDS011;58897;51.960;5.582;2022-12-31T02:14:15;2.87;;;1.17;;
12986;SDS011;58897;51.960;5.582;2022-12-31T02:20:18;2.70;;;1.00;;
12986;SDS011;58897;51.960;5.582;2022-12-31T02:25:26;3.50;;;1.40;;
12986;SDS011;58897;51.960;5.582;2022-12-31T02:33:37;8.30;;;5.67;;
12986;SDS011;58897;51.960;5.582;2022-12-31T02:36:10;8.50;;;5.67;;
12986;SDS011;58897;51.960;5.582;2022-12-31T02:38:43;7.63;;;4.70;;
12986;SDS011;58897;51.960;5.582;2022-12-31T02:41:13;6.80;;;3.83;;
12986;SDS011;58897;51.960;5.582;2022-12-31T02:44:15;7.37;;;3.20;;
12986;SDS011;58897;51.960;5.582;2022-12-31T02:46:45;4.07;;;2.23;;
12986;SDS011;58897;51.960;5.582;2022-12-31T02:49:50;3.27;;;1.47;;
12986;SDS011;58897;51.960;5.582;2022-12-31T02:52:38;3.53;;;1.50;;
12986;SDS011;58897;51.960;5.582;2022-12-31T02:58:20;4.37;;;0.90;;
12986;SDS011;58897;51.960;5.582;2022-12-31T03:00:48;2.23;;;0.80;;
12986;SDS011;58897;51.960;5.582;2022-12-31T03:03:37;2.33;;;0.80;;
12986;SDS011;58897;51.960;5.582;2022-12-31T03:06:05;1.23;;;0.60;;
12986;SDS011;58897;51.960;5.582;2022-12-31T03:08:34;1.50;;;1.23;;
12986;SDS011;58897;51.960;5.582;2022-12-31T03:11:22;5.40;;;1.27;;
12986;SDS011;58897;51.960;5.582;2022-12-31T03:14:07;1.30;;;0.50;;
12986;SDS011;58897;51.960;5.582;2022-12-31T03:16:33;1.93;;;0.80;;
12986;SDS011;58897;51.960;5.582;2022-12-31T03:19:00;2.77;;;0.90;;
12986;SDS011;58897;51.960;5.582;2022-12-31T03:21:45;1.63;;;1.13;;
12986;SDS011;58897;51.960;5.582;2022-12-31T03:24:30;5.30;;;1.50;;
12986;SDS011;58897;51.960;5.582;2022-12-31T03:27:15;4.03;;;1.30;;
12986;SDS011;58897;51.960;5.582;2022-12-31T03:29:41;4.97;;;1.43;;
12986;SDS011;58897;51.960;5.582;2022-12-31T03:32:08;4.27;;;2.00;;
12986;SDS011;58897;51.960;5.582;2022-12-31T03:34:34;3.70;;;2.23;;
12986;SDS011;58897;51.960;5.582;2022-12-31T03:37:01;3.43;;;2.10;;
12986;SDS011;58897;51.960;5.582;2022-12-31T03:39:27;2.40;;;2.17;;
12986;SDS011;58897;51.960;5.582;2022-12-31T03:41:53;4.77;;;2.70;;
12986;SDS011;58897;51.960;5.582;2022-12-31T03:44:20;5.03;;;3.10;;
12986;SDS011;58897;51.960;5.582;2022-12-31T03:46:46;4.63;;;2.80;;
12986;SDS011;58897;51.960;5.582;2022-12-31T03:49:13;5.60;;;3.07;;
12986;SDS011;58897;51.960;5.582;2022-12-31T03:51:39;4.53;;;2.60;;
12986;SDS011;58897;51.960;5.582;2022-12-31T03:54:06;4.00;;;2.80;;
12986;SDS011;58897;51.960;5.582;2022-12-31T03:56:32;5.30;;;3.47;;
12986;SDS011;58897;51.960;5.582;2022-12-31T03:58:59;8.97;;;4.07;;
12986;SDS011;58897;51.960;5.582;2022-12-31T04:01:25;5.77;;;3.77;;
12986;SDS011;58897;51.960;5.582;2022-12-31T04:03:52;6.47;;;4.30;;
12986;SDS011;58897;51.960;5.582;2022-12-31T04:06:19;8.93;;;4.90;;
12986;SDS011;58897;51.960;5.582;2022-12-31T04:08:45;8.53;;;4.63;;
12986;SDS011;58897;51.960;5.582;2022-12-31T04:11:12;7.73;;;4.37;;
12986;SDS011;58897;51.960;5.582;2022-12-31T04:13:45;7.53;;;4.30;;
12986;SDS011;58897;51.960;5.582;2022-12-31T04:16:12;5.97;;;4.20;;
12986;SDS011;58897;51.960;5.582;2022-12-31T04:18:39;7.00;;;4.00;;
12986;SDS011;58897;51.960;5.582;2022-12-31T04:21:05;8.37;;;4.00;;
12986;SDS011;58897;51.960;5.582;2022-12-31T04:23:32;7.33;;;4.20;;
12986;SDS011;58897;51.960;5.582;2022-12-31T04:25:58;8.33;;;4.00;;
12986;SDS011;58897;51.960;5.582;2022-12-31T04:28:25;6.87;;;4.27;;
12986;SDS011;58897;51.960;5.582;2022-12-31T04:30:51;6.20;;;4.23;;
12986;SDS011;58897;51.960;5.582;2022-12-31T04:33:17;5.87;;;4.20;;
12986;SDS011;58897;51.960;5.582;2022-12-31T04:35:44;6.53;;;4.03;;
12986;SDS011;58897;51.960;5.582;2022-12-31T04:38:10;7.80;;;4.17;;
12986;SDS011;58897;51.960;5.582;2022-12-31T04:40:37;5.03;;;3.70;;
12986;SDS011;58897;51.960;5.582;2022-12-31T04:43:26;5.70;;;3.90;;
12986;SDS011;58897;51.960;5.582;2022-12-31T04:45:53;6.17;;;3.40;;
12986;SDS011;58897;51.960;5.582;2022-12-31T04:48:19;4.50;;;3.20;;
12986;SDS011;58897;51.960;5.582;2022-12-31T04:50:46;7.83;;;3.67;;
12986;SDS011;58897;51.960;5.582;2022-12-31T04:53:12;7.27;;;3.53;;
12986;SDS011;58897;51.960;5.582;2022-12-31T04:55:39;5.00;;;3.70;;
12986;SDS011;58897;51.960;5.582;2022-12-31T04:58:06;4.93;;;3.00;;
12986;SDS011;58897;51.960;5.582;2022-12-31T05:00:33;3.77;;;3.17;;
12986;SDS011;58897;51.960;5.582;2022-12-31T05:02:59;3.77;;;2.70;;
12986;SDS011;58897;51.960;5.582;2022-12-31T05:05:26;3.37;;;2.33;;
12986;SDS011;58897;51.960;5.582;2022-12-31T05:07:52;3.43;;;2.17;;
12986;SDS011;58897;51.960;5.582;2022-12-31T05:10:19;5.30;;;2.47;;
12986;SDS011;58897;51.960;5.582;2022-12-31T05:12:45;4.40;;;2.77;;
12986;SDS011;58897;51.960;5.582;2022-12-31T05:15:11;3.83;;;2.50;;
12986;SDS011;58897;51.960;5.582;2022-12-31T05:17:38;6.53;;;2.87;;
12986;SDS011;58897;51.960;5.582;2022-12-31T05:20:05;4.63;;;2.60;;
12986;SDS011;58897;51.960;5.582;2022-12-31T05:22:32;3.37;;;2.20;;
12986;SDS011;58897;51.960;5.582;2022-12-31T05:24:58;4.50;;;2.13;;
12986;SDS011;58897;51.960;5.582;2022-12-31T05:27:26;1.87;;;1.60;;
12986;SDS011;58897;51.960;5.582;2022-12-31T05:29:53;2.30;;;1.70;;
12986;SDS011;58897;51.960;5.582;2022-12-31T05:32:20;1.63;;;1.50;;
12986;SDS011;58897;51.960;5.582;2022-12-31T05:34:47;2.00;;;1.70;;
12986;SDS011;58897;51.960;5.582;2022-12-31T05:37:13;3.47;;;1.90;;
12986;SDS011;58897;51.960;5.582;2022-12-31T05:39:39;4.23;;;2.13;;
12986;SDS011;58897;51.960;5.582;2022-12-31T05:42:06;1.83;;;1.50;;
12986;SDS011;58897;51.960;5.582;2022-12-31T05:44:32;2.20;;;1.90;;
12986;SDS011;58897;51.960;5.582;2022-12-31T05:46:59;1.73;;;1.57;;
12986;SDS011;58897;51.960;5.582;2022-12-31T05:49:25;1.50;;;1.40;;
12986;SDS011;58897;51.960;5.582;2022-12-31T05:51:52;3.10;;;1.30;;
12986;SDS011;58897;51.960;5.582;2022-12-31T05:54:18;2.03;;;1.03;;
12986;SDS011;58897;51.960;5.582;2022-12-31T05:56:45;1.87;;;1.60;;
12986;SDS011;58897;51.960;5.582;2022-12-31T05:59:11;3.83;;;1.60;;
12986;SDS011;58897;51.960;5.582;2022-12-31T06:01:38;1.77;;;1.30;;
12986;SDS011;58897;51.960;5.582;2022-12-31T06:04:04;2.80;;;1.30;;
12986;SDS011;58897;51.960;5.582;2022-12-31T06:06:31;2.00;;;1.47;;
12986;SDS011;58897;51.960;5.582;2022-12-31T06:08:57;2.23;;;1.43;;
12986;SDS011;58897;51.960;5.582;2022-12-31T06:11:24;1.27;;;1.03;;
12986;SDS011;58897;51.960;5.582;2022-12-31T06:13:50;4.27;;;1.50;;
12986;SDS011;58897;51.960;5.582;2022-12-31T06:16:17;3.93;;;1.50;;
12986;SDS011;58897;51.960;5.582;2022-12-31T06:18:45;2.00;;;1.80;;
12986;SDS011;58897;51.960;5.582;2022-12-31T06:21:12;1.33;;;1.20;;
12986;SDS011;58897;51.960;5.582;2022-12-31T06:23:41;3.30;;;2.00;;
12986;SDS011;58897;51.960;5.582;2022-12-31T06:26:07;1.83;;;1.47;;
12986;SDS011;58897;51.960;5.582;2022-12-31T06:28:34;3.00;;;1.60;;
12986;SDS011;58897;51.960;5.582;2022-12-31T06:31:04;2.40;;;1.63;;
12986;SDS011;58897;51.960;5.582;2022-12-31T06:33:32;2.63;;;1.90;;
12986;SDS011;58897;51.960;5.582;2022-12-31T06:36:01;3.63;;;1.60;;
12986;SDS011;58897;51.960;5.582;2022-12-31T06:38:30;2.33;;;1.70;;
12986;SDS011;58897;51.960;5.582;2022-12-31T06:41:01;2.73;;;1.70;;
12986;SDS011;58897;51.960;5.582;2022-12-31T06:43:33;2.13;;;1.67;;
12986;SDS011;58897;51.960;5.582;2022-12-31T06:46:00;1.60;;;1.50;;
12986;SDS011;58897;51.960;5.582;2022-12-31T06:48:31;3.83;;;1.33;;
12986;SDS011;58897;51.960;5.582;2022-12-31T06:51:04;1.67;;;1.30;;
12986;SDS011;58897;51.960;5.582;2022-12-31T06:53:38;1.90;;;1.43;;
12986;SDS011;58897;51.960;5.582;2022-12-31T06:56:09;3.83;;;2.10;;
12986;SDS011;58897;51.960;5.582;2022-12-31T06:58:39;2.20;;;2.00;;
12986;SDS011;58897;51.960;5.582;2022-12-31T07:04:12;2.17;;;1.53;;
12986;SDS011;58897;51.960;5.582;2022-12-31T07:06:42;2.07;;;1.67;;
12986;SDS011;58897;51.960;5.582;2022-12-31T07:09:21;1.67;;;1.43;;
12986;SDS011;58897;51.960;5.582;2022-12-31T07:12:02;2.13;;;1.60;;
12986;SDS011;58897;51.960;5.582;2022-12-31T07:14:38;1.73;;;1.57;;
12986;SDS011;58897;51.960;5.582;2022-12-31T07:17:19;5.23;;;2.17;;
12986;SDS011;58897;51.960;5.582;2022-12-31T07:20:16;4.37;;;2.70;;
12986;SDS011;58897;51.960;5.582;2022-12-31T07:22:44;3.87;;;3.13;;
12986;SDS011;58897;51.960;5.582;2022-12-31T07:25:12;4.20;;;3.13;;
12986;SDS011;58897;51.960;5.582;2022-12-31T07:28:04;4.93;;;4.00;;
12986;SDS011;58897;51.960;5.582;2022-12-31T07:30:59;4.83;;;3.20;;
12986;SDS011;58897;51.960;5.582;2022-12-31T07:33:41;3.57;;;2.90;;
12986;SDS011;58897;51.960;5.582;2022-12-31T07:36:20;5.57;;;2.80;;
12986;SDS011;58897;51.960;5.582;2022-12-31T07:41:50;5.63;;;3.60;;
12986;SDS011;58897;51.960;5.582;2022-12-31T07:47:24;4.30;;;2.97;;
12986;SDS011;58897;51.960;5.582;2022-12-31T07:49:53;4.33;;;2.53;;
12986;SDS011;58897;51.960;5.582;2022-12-31T07:52:20;3.93;;;2.37;;
12986;SDS011;58897;51.960;5.582;2022-12-31T07:54:47;6.57;;;2.23;;
12986;SDS011;58897;51.960;5.582;2022-12-31T07:57:15;3.40;;;0.93;;
12986;SDS011;58897;51.960;5.582;2022-12-31T08:00:00;2.93;;;1.30;;
12986;SDS011;58897;51.960;5.582;2022-12-31T08:06:01;2.67;;;0.97;;
12986;SDS011;58897;51.960;5.582;2022-12-31T08:08:31;1.23;;;0.63;;
12986;SDS011;58897;51.960;5.582;2022-12-31T08:13:45;1.20;;;0.80;;
12986;SDS011;58897;51.960;5.582;2022-12-31T08:16:12;2.40;;;0.80;;
12986;SDS011;58897;51.960;5.582;2022-12-31T08:18:39;4.03;;;0.80;;
12986;SDS011;58897;51.960;5.582;2022-12-31T08:24:06;2.57;;;0.60;;
12986;SDS011;58897;51.960;5.582;2022-12-31T08:29:47;0.47;;;0.33;;
12986;SDS011;58897;51.960;5.582;2022-12-31T08:32:22;3.80;;;0.70;;
12986;SDS011;58897;51.960;5.582;2022-12-31T08:40:30;1.10;;;0.80;;
12986;SDS011;58897;51.960;5.582;2022-12-31T08:45:53;1.10;;;0.70;;
12986;SDS011;58897;51.960;5.582;2022-12-31T08:48:30;2.60;;;0.90;;
12986;SDS011;58897;51.960;5.582;2022-12-31T08:51:03;2.50;;;0.80;;
12986;SDS011;58897;51.960;5.582;2022-12-31T08:53:30;0.87;;;0.80;;
12986;SDS011;58897;51.960;5.582;2022-12-31T08:56:03;2.27;;;0.60;;
12986;SDS011;58897;51.960;5.582;2022-12-31T08:58:44;1.57;;;0.60;;
12986;SDS011;58897;51.960;5.582;2022-12-31T09:01:14;0.90;;;0.73;;
12986;SDS011;58897;51.960;5.582;2022-12-31T09:06:28;2.53;;;1.00;;
12986;SDS011;58897;51.960;5.582;2022-12-31T09:20:13;2.10;;;1.03;;
12986;SDS011;58897;51.960;5.582;2022-12-31T09:22:42;2.47;;;1.23;;
12986;SDS011;58897;51.960;5.582;2022-12-31T09:25:13;1.50;;;1.07;;
12986;SDS011;58897;51.960;5.582;2022-12-31T09:30:33;1.73;;;1.10;;
12986;SDS011;58897;51.960;5.582;2022-12-31T09:33:30;1.70;;;1.17;;
12986;SDS011;58897;51.960;5.582;2022-12-31T09:36:18;1.47;;;1.30;;
12986;SDS011;58897;51.960;5.582;2022-12-31T09:39:02;2.10;;;1.10;;
12986;SDS011;58897;51.960;5.582;2022-12-31T09:50:04;1.60;;;1.50;;
12986;SDS011;58897;51.960;5.582;2022-12-31T09:58:37;5.17;;;1.57;;
12986;SDS011;58897;51.960;5.582;2022-12-31T10:01:19;10.87;;;2.20;;
12986;SDS011;58897;51.960;5.582;2022-12-31T10:04:04;2.83;;;1.43;;
12986;SDS011;58897;51.960;5.582;2022-12-31T10:09:25;4.13;;;1.13;;
12986;SDS011;58897;51.960;5.582;2022-12-31T10:14:38;5.93;;;2.30;;
12986;SDS011;58897;51.960;5.582;2022-12-31T10:17:16;2.47;;;1.27;;
12986;SDS011;58897;51.960;5.582;2022-12-31T10:23:06;1.63;;;1.20;;
12986;SDS011;58897;51.960;5.582;2022-12-31T10:25:50;4.07;;;1.60;;
12986;SDS011;58897;51.960;5.582;2022-12-31T10:34:12;5.07;;;1.70;;
12986;SDS011;58897;51.960;5.582;2022-12-31T10:48:15;8.03;;;2.17;;
12986;SDS011;58897;51.960;5.582;2022-12-31T11:02:12;9.90;;;2.30;;
12986;SDS011;58897;51.960;5.582;2022-12-31T11:11:02;3.83;;;2.00;;
12986;SDS011;58897;51.960;5.582;2022-12-31T11:34:26;4.40;;;1.50;;
12986;SDS011;58897;51.960;5.582;2022-12-31T11:43:10;8.20;;;2.03;;
12986;SDS011;58897;51.960;5.582;2022-12-31T11:45:49;6.93;;;2.13;;
12986;SDS011;58897;51.960;5.582;2022-12-31T11:48:35;4.23;;;1.80;;
12986;SDS011;58897;51.960;5.582;2022-12-31T11:57:01;4.23;;;1.53;;
12986;SDS011;58897;51.960;5.582;2022-12-31T11:59:38;5.07;;;1.47;;
12986;SDS011;58897;51.960;5.582;2022-12-31T12:04:51;2.73;;;1.33;;
12986;SDS011;58897;51.960;5.582;2022-12-31T12:07:18;4.17;;;1.43;;
12986;SDS011;58897;51.960;5.582;2022-12-31T12:09:45;3.77;;;1.27;;
12986;SDS011;58897;51.960;5.582;2022-12-31T12:12:12;4.53;;;1.40;;
12986;SDS011;58897;51.960;5.582;2022-12-31T12:14:41;7.40;;;1.50;;
12986;SDS011;58897;51.960;5.582;2022-12-31T12:17:20;4.27;;;1.53;;
12986;SDS011;58897;51.960;5.582;2022-12-31T12:20:03;3.17;;;1.60;;
12986;SDS011;58897;51.960;5.582;2022-12-31T12:22:47;3.47;;;1.60;;
12986;SDS011;58897;51.960;5.582;2022-12-31T12:25:19;8.83;;;1.47;;
12986;SDS011;58897;51.960;5.582;2022-12-31T12:27:48;2.33;;;0.93;;
12986;SDS011;58897;51.960;5.582;2022-12-31T12:30:19;2.97;;;1.20;;
12986;SDS011;58897;51.960;5.582;2022-12-31T12:32:55;4.70;;;1.50;;
12986;SDS011;58897;51.960;5.582;2022-12-31T12:35:24;2.70;;;1.27;;
12986;SDS011;58897;51.960;5.582;2022-12-31T12:37:57;4.33;;;1.73;;
12986;SDS011;58897;51.960;5.582;2022-12-31T12:40:25;3.87;;;1.40;;
12986;SDS011;58897;51.960;5.582;2022-12-31T12:42:59;5.30;;;1.80;;
12986;SDS011;58897;51.960;5.582;2022-12-31T12:45:28;4.10;;;1.60;;
12986;SDS011;58897;51.960;5.582;2022-12-31T12:48:09;6.27;;;2.37;;
12986;SDS011;58897;51.960;5.582;2022-12-31T12:50:43;5.90;;;1.70;;
12986;SDS011;58897;51.960;5.582;2022-12-31T12:53:19;7.00;;;1.57;;
12986;SDS011;58897;51.960;5.582;2022-12-31T12:58:55;8.40;;;1.87;;
12986;SDS011;58897;51.960;5.582;2022-12-31T13:01:57;6.27;;;1.73;;
12986;SDS011;58897;51.960;5.582;2022-12-31T13:07:18;3.17;;;1.20;;
12986;SDS011;58897;51.960;5.582;2022-12-31T13:10:20;4.83;;;1.53;;
12986;SDS011;58897;51.960;5.582;2022-12-31T13:29:43;2.83;;;1.80;;
12986;SDS011;58897;51.960;5.582;2022-12-31T13:32:16;11.23;;;2.70;;
12986;SDS011;58897;51.960;5.582;2022-12-31T13:34:47;4.87;;;2.20;;
12986;SDS011;58897;51.960;5.582;2022-12-31T13:37:21;6.67;;;1.90;;
12986;SDS011;58897;51.960;5.582;2022-12-31T13:39:57;5.63;;;1.53;;
12986;SDS011;58897;51.960;5.582;2022-12-31T13:42:33;4.67;;;1.80;;
12986;SDS011;58897;51.960;5.582;2022-12-31T13:45:09;2.00;;;1.50;;
12986;SDS011;58897;51.960;5.582;2022-12-31T13:47:45;6.97;;;1.93;;
12986;SDS011;58897;51.960;5.582;2022-12-31T13:50:25;5.87;;;2.13;;
12986;SDS011;58897;51.960;5.582;2022-12-31T13:52:59;2.83;;;1.63;;
12986;SDS011;58897;51.960;5.582;2022-12-31T13:55:37;5.37;;;2.13;;
12986;SDS011;58897;51.960;5.582;2022-12-31T14:01:05;3.13;;;1.47;;
12986;SDS011;58897;51.960;5.582;2022-12-31T14:06:36;5.10;;;1.80;;
12986;SDS011;58897;51.960;5.582;2022-12-31T14:09:09;3.30;;;1.80;;
12986;SDS011;58897;51.960;5.582;2022-12-31T14:12:07;3.37;;;1.53;;
12986;SDS011;58897;51.960;5.582;2022-12-31T14:14:45;4.50;;;1.30;;
12986;SDS011;58897;51.960;5.582;2022-12-31T14:20:12;4.13;;;1.80;;
12986;SDS011;58897;51.960;5.582;2022-12-31T14:22:53;5.03;;;1.83;;
12986;SDS011;58897;51.960;5.582;2022-12-31T14:25:36;5.07;;;1.97;;
12986;SDS011;58897;51.960;5.582;2022-12-31T14:28:06;5.10;;;2.30;;
12986;SDS011;58897;51.960;5.582;2022-12-31T14:30:42;4.97;;;2.07;;
12986;SDS011;58897;51.960;5.582;2022-12-31T14:33:28;7.00;;;2.70;;
12986;SDS011;58897;51.960;5.582;2022-12-31T14:39:21;5.73;;;3.30;;
12986;SDS011;58897;51.960;5.582;2022-12-31T14:45:48;6.70;;;3.43;;
12986;SDS011;58897;51.960;5.582;2022-12-31T14:51:19;8.77;;;3.27;;
12986;SDS011;58897;51.960;5.582;2022-12-31T14:53:50;5.23;;;3.37;;
12986;SDS011;58897;51.960;5.582;2022-12-31T14:56:29;7.37;;;3.20;;
12986;SDS011;58897;51.960;5.582;2022-12-31T14:59:02;4.10;;;2.97;;
12986;SDS011;58897;51.960;5.582;2022-12-31T15:01:29;8.83;;;3.40;;
12986;SDS011;58897;51.960;5.582;2022-12-31T15:03:56;9.50;;;2.53;;
12986;SDS011;58897;51.960;5.582;2022-12-31T15:14:38;5.70;;;2.00;;
12986;SDS011;58897;51.960;5.582;2022-12-31T15:20:18;5.30;;;2.47;;
12986;SDS011;58897;51.960;5.582;2022-12-31T15:22:55;6.57;;;2.17;;
12986;SDS011;58897;51.960;5.582;2022-12-31T15:31:13;6.27;;;2.07;;
12986;SDS011;58897;51.960;5.582;2022-12-31T15:36:23;6.17;;;2.37;;
12986;SDS011;58897;51.960;5.582;2022-12-31T15:39:02;7.53;;;2.13;;
12986;SDS011;58897;51.960;5.582;2022-12-31T15:41:42;5.00;;;2.07;;
12986;SDS011;58897;51.960;5.582;2022-12-31T15:47:29;6.37;;;2.40;;
12986;SDS011;58897;51.960;5.582;2022-12-31T15:50:02;9.43;;;2.17;;
12986;SDS011;58897;51.960;5.582;2022-12-31T15:52:53;6.47;;;2.10;;
12986;SDS011;58897;51.960;5.582;2022-12-31T15:55:28;5.53;;;1.93;;
12986;SDS011;58897;51.960;5.582;2022-12-31T15:58:00;6.37;;;1.67;;
12986;SDS011;58897;51.960;5.582;2022-12-31T16:00:42;8.53;;;2.60;;
12986;SDS011;58897;51.960;5.582;2022-12-31T16:03:19;14.03;;;2.67;;
12986;SDS011;58897;51.960;5.582;2022-12-31T16:05:48;7.90;;;2.60;;
12986;SDS011;58897;51.960;5.582;2022-12-31T16:08:16;4.27;;;2.10;;
12986;SDS011;58897;51.960;5.582;2022-12-31T16:10:46;7.03;;;2.30;;
12986;SDS011;58897;51.960;5.582;2022-12-31T16:13:20;6.87;;;2.87;;
12986;SDS011;58897;51.960;5.582;2022-12-31T16:15:50;5.67;;;2.30;;
12986;SDS011;58897;51.960;5.582;2022-12-31T16:18:22;11.40;;;2.90;;
12986;SDS011;58897;51.960;5.582;2022-12-31T16:20:49;7.17;;;3.00;;
12986;SDS011;58897;51.960;5.582;2022-12-31T16:23:18;8.23;;;4.57;;
12986;SDS011;58897;51.960;5.582;2022-12-31T16:25:48;8.57;;;3.30;;
12986;SDS011;58897;51.960;5.582;2022-12-31T16:28:18;11.63;;;3.80;;
12986;SDS011;58897;51.960;5.582;2022-12-31T16:30:56;8.83;;;4.50;;
12986;SDS011;58897;51.960;5.582;2022-12-31T16:33:27;16.90;;;7.90;;
12986;SDS011;58897;51.960;5.582;2022-12-31T16:35:54;9.80;;;5.10;;
12986;SDS011;58897;51.960;5.582;2022-12-31T16:38:33;10.10;;;5.83;;
12986;SDS011;58897;51.960;5.582;2022-12-31T16:43:37;7.73;;;4.40;;
12986;SDS011;58897;51.960;5.582;2022-12-31T16:46:07;9.13;;;3.57;;
12986;SDS011;58897;51.960;5.582;2022-12-31T16:48:35;5.80;;;2.40;;
12986;SDS011;58897;51.960;5.582;2022-12-31T16:51:02;7.27;;;3.80;;
12986;SDS011;58897;51.960;5.582;2022-12-31T16:53:31;7.90;;;2.90;;
12986;SDS011;58897;51.960;5.582;2022-12-31T16:56:03;13.27;;;6.47;;
12986;SDS011;58897;51.960;5.582;2022-12-31T16:58:36;6.87;;;4.50;;
12986;SDS011;58897;51.960;5.582;2022-12-31T17:03:40;6.93;;;2.47;;
12986;SDS011;58897;51.960;5.582;2022-12-31T17:06:11;8.67;;;3.40;;
12986;SDS011;58897;51.960;5.582;2022-12-31T17:08:49;10.63;;;3.27;;
12986;SDS011;58897;51.960;5.582;2022-12-31T17:11:32;3.13;;;1.93;;
12986;SDS011;58897;51.960;5.582;2022-12-31T17:16:37;5.50;;;2.30;;
12986;SDS011;58897;51.960;5.582;2022-12-31T17:19:44;5.90;;;2.53;;
12986;SDS011;58897;51.960;5.582;2022-12-31T17:22:21;8.60;;;4.50;;
12986;SDS011;58897;51.960;5.582;2022-12-31T17:25:05;7.53;;;3.10;;
12986;SDS011;58897;51.960;5.582;2022-12-31T17:27:34;4.33;;;2.70;;
12986;SDS011;58897;51.960;5.582;2022-12-31T17:32:48;5.77;;;2.53;;
12986;SDS011;58897;51.960;5.582;2022-12-31T17:35:28;6.17;;;3.27;;
12986;SDS011;58897;51.960;5.582;2022-12-31T17:40:49;8.90;;;4.40;;
12986;SDS011;58897;51.960;5.582;2022-12-31T17:43:19;7.33;;;3.77;;
12986;SDS011;58897;51.960;5.582;2022-12-31T17:45:49;4.80;;;3.77;;
12986;SDS011;58897;51.960;5.582;2022-12-31T17:48:16;9.63;;;4.30;;
12986;SDS011;58897;51.960;5.582;2022-12-31T17:50:48;7.40;;;4.23;;
12986;SDS011;58897;51.960;5.582;2022-12-31T17:53:20;8.07;;;4.37;;
12986;SDS011;58897;51.960;5.582;2022-12-31T17:55:50;6.90;;;3.73;;
12986;SDS011;58897;51.960;5.582;2022-12-31T17:58:27;5.60;;;3.60;;
12986;SDS011;58897;51.960;5.582;2022-12-31T18:00:55;4.90;;;3.97;;
12986;SDS011;58897;51.960;5.582;2022-12-31T18:03:22;7.50;;;3.77;;
12986;SDS011;58897;51.960;5.582;2022-12-31T18:05:49;7.23;;;3.70;;
12986;SDS011;58897;51.960;5.582;2022-12-31T18:08:15;8.73;;;4.00;;
12986;SDS011;58897;51.960;5.582;2022-12-31T18:10:42;8.03;;;4.93;;
12986;SDS011;58897;51.960;5.582;2022-12-31T18:13:12;11.93;;;7.73;;
12986;SDS011;58897;51.960;5.582;2022-12-31T18:15:42;6.67;;;3.83;;
12986;SDS011;58897;51.960;5.582;2022-12-31T18:18:16;10.53;;;3.90;;
12986;SDS011;58897;51.960;5.582;2022-12-31T18:20:51;8.10;;;7.00;;
12986;SDS011;58897;51.960;5.582;2022-12-31T18:23:21;8.87;;;5.13;;
12986;SDS011;58897;51.960;5.582;2022-12-31T18:25:53;6.67;;;3.47;;
12986;SDS011;58897;51.960;5.582;2022-12-31T18:28:20;4.97;;;3.17;;
12986;SDS011;58897;51.960;5.582;2022-12-31T18:30:46;7.50;;;3.63;;
12986;SDS011;58897;51.960;5.582;2022-12-31T18:33:14;6.47;;;2.70;;
12986;SDS011;58897;51.960;5.582;2022-12-31T18:35:48;7.77;;;4.80;;
12986;SDS011;58897;51.960;5.582;2022-12-31T18:38:34;6.57;;;2.80;;
12986;SDS011;58897;51.960;5.582;2022-12-31T18:41:00;4.97;;;2.83;;
12986;SDS011;58897;51.960;5.582;2022-12-31T18:43:27;6.03;;;2.83;;
12986;SDS011;58897;51.960;5.582;2022-12-31T18:45:54;9.20;;;4.53;;
12986;SDS011;58897;51.960;5.582;2022-12-31T18:48:21;9.07;;;3.43;;
12986;SDS011;58897;51.960;5.582;2022-12-31T18:50:47;6.87;;;3.53;;
12986;SDS011;58897;51.960;5.582;2022-12-31T18:53:15;13.87;;;8.60;;
12986;SDS011;58897;51.960;5.582;2022-12-31T18:55:54;6.47;;;3.40;;
12986;SDS011;58897;51.960;5.582;2022-12-31T18:58:21;7.20;;;3.37;;
12986;SDS011;58897;51.960;5.582;2022-12-31T19:00:49;16.60;;;8.70;;
12986;SDS011;58897;51.960;5.582;2022-12-31T19:03:20;7.10;;;3.70;;
12986;SDS011;58897;51.960;5.582;2022-12-31T19:05:49;4.07;;;2.77;;
12986;SDS011;58897;51.960;5.582;2022-12-31T19:08:16;8.60;;;4.47;;
12986;SDS011;58897;51.960;5.582;2022-12-31T19:10:44;8.80;;;3.70;;
12986;SDS011;58897;51.960;5.582;2022-12-31T19:13:11;8.17;;;3.50;;
12986;SDS011;58897;51.960;5.582;2022-12-31T19:15:44;4.23;;;2.30;;